»·PEaware :: N5083S KOTH-KEUG

N5083S :: KOTH-KEUG

FLIGHT INFORMATION

Flight Status: Arrived
Operator: Privately registered:
United States
More flights under this callsign
Pilot: Elmar V. (17985)
Aircraft: BEECH AIRCRAFT BARON
(BE58)
More flights by this aircraft type
Origin: KOTH North Bend Mun
United States
Destination: KEUG Mahlon Sweet
United States
More flights between these airports :: More routes between these airports
Route: +OTH V121 EUG
File this flight plan on PilotEdge
Remarks:
Altitude:
(Current/Filed)
7,000ft
Speed:
(Current/Filed)
140kts
Departed: 19-Nov-18 12:41 PM
Arrived: 19-Nov-18 01:20 PM
Distance/Time
Traveled:
61nm/0:39
Distance/Time
To Go:
Arrived

Flight Plot

Page will automatically refresh every two minutes.

Flight plan parsing failed; only flown route is shown


Map Options




Map Legend


Flown Route
Filed Route
Departure Airport
Arrival Airport
Navaid (VOR, NDB)
Fix

Horizontal Profiles

Position Reports

Time Latitude Longitude Heading Altitude Ground
Speed
19-Nov-18 12:32 43.414799 -124.244805 330 20ft 0kts
19-Nov-18 12:33 43.414799 -124.244805 330 20ft 0kts
19-Nov-18 12:34 43.414799 -124.244805 330 20ft 0kts
19-Nov-18 12:35 43.414799 -124.244805 330 20ft 0kts
19-Nov-18 12:36 43.414799 -124.244805 330 20ft 0kts
19-Nov-18 12:37 43.414799 -124.244805 330 20ft 0kts
19-Nov-18 12:38 43.414802 -124.244807 330 20ft 0kts
19-Nov-18 12:39 43.416064 -124.244630 331 17ft 16kts
19-Nov-18 12:40 43.418515 -124.248305 240 19ft 7kts
19-Nov-18 12:41 43.416107 -124.254176 240 17ft 24kts
19-Nov-18 12:42 43.413983 -124.259928 326 4ft 0kts
19-Nov-18 12:43 43.413983 -124.259928 326 4ft 0kts
19-Nov-18 12:44 43.416757 -124.255628 59 11ft 92kts
19-Nov-18 12:45 43.432809 -124.245511 266 1556ft 110kts
19-Nov-18 12:46 43.412276 -124.280183 249 2893ft 122kts
19-Nov-18 12:47 43.430099 -124.299352 38 4095ft 116kts
19-Nov-18 12:48 43.432690 -124.256061 96 5154ft 124kts
19-Nov-18 12:49 43.426520 -124.210820 101 6020ft 120kts
19-Nov-18 12:50 43.418737 -124.165709 92 6905ft 133kts
19-Nov-18 12:51 43.443945 -124.127673 32 6971ft 148kts
19-Nov-18 12:52 43.475122 -124.090129 36 7010ft 148kts
19-Nov-18 12:53 43.506150 -124.051771 38 6984ft 149kts
19-Nov-18 12:54 43.538536 -124.014605 35 6934ft 157kts
19-Nov-18 12:55 43.573539 -123.971962 45 7003ft 180kts
19-Nov-18 12:56 43.606437 -123.919188 43 6970ft 185kts
19-Nov-18 12:57 43.642425 -123.870357 39 7026ft 182kts
19-Nov-18 12:58 43.679506 -123.822768 40 7030ft 182kts
19-Nov-18 12:59 43.716684 -123.775212 37 7045ft 181kts
19-Nov-18 13:00 43.753050 -123.726438 42 7018ft 183kts
19-Nov-18 13:01 43.788911 -123.676735 41 7044ft 181kts
19-Nov-18 13:02 43.825469 -123.628357 40 7024ft 183kts
19-Nov-18 13:03 43.860203 -123.576510 47 6967ft 186kts
19-Nov-18 13:04 43.902447 -123.542080 16 7037ft 179kts
19-Nov-18 13:05 43.951485 -123.530777 9 7020ft 179kts
19-Nov-18 13:06 44.000292 -123.517400 10 7003ft 181kts
19-Nov-18 13:07 44.048344 -123.502618 10 7108ft 178kts
19-Nov-18 13:08 44.097164 -123.489912 9 7061ft 179kts
19-Nov-18 13:09 44.145676 -123.472462 16 6439ft 181kts
19-Nov-18 13:10 44.194013 -123.459998 5 5559ft 176kts
19-Nov-18 13:11 44.241776 -123.446650 8 5034ft 173kts
19-Nov-18 13:12 44.288572 -123.435451 9 5008ft 168kts
19-Nov-18 13:13 44.332210 -123.418918 60 4977ft 169kts
19-Nov-18 13:14 44.333879 -123.352441 80 4301ft 181kts
19-Nov-18 13:15 44.336942 -123.282735 89 3265ft 180kts
19-Nov-18 13:16 44.336749 -123.218629 90 3016ft 153kts
19-Nov-18 13:17 44.302699 -123.218345 211 2380ft 165kts
19-Nov-18 13:18 44.260892 -123.219636 178 2017ft 152kts
19-Nov-18 13:19 44.219539 -123.220373 177 1963ft 145kts
19-Nov-18 13:20 44.181556 -123.220056 185 1390ft 119kts
19-Nov-18 13:21 44.150756 -123.218373 178 732ft 110kts
19-Nov-18 13:22 44.124841 -123.219044 182 359ft 41kts
19-Nov-18 13:23 44.119885 -123.217308 133 362ft 9kts
19-Nov-18 13:24 44.117995 -123.214915 139 365ft 4kts

Navigation Log

Ident Type
Flight plan parsing failed, navigation log unavailable